Airfield :







YOU CAN JOIN US ON...

 
LOGIN :

Register | Disclaimer

   EN    FR    IT 

 









Legend :    VFR   Marginal VFR   IFR   Intensive IFR   Very Intensive IFR
Visi :
Ceiling :
>= 8 km
>= 3000ft
5 to 8 km
1000 to 3000 ft
1500m to 5 km
500 to 1000 ft
800 to 1500m
200 to 500 ft
< 800m
< 200 ft
Symbols :   Thunderstorms  Fog  Heavy snow  Heavy precipitations  Wind > 20 kt







- Airport Elevation : 110 ft
- IATA code : YFB


CYFB - Iqaluit

CURRENT METAR :
  • 251300Z 13013G20KT 25SM DRSN BKN140 M08/M11 A2983 RMK AC6 SLP105

EXPIRED METARs :
  • 251200Z 14020G25KT 25SM BKN100 M09/M12 A2984 RMK AC7 SLP109
  • 251100Z 14018G23KT 30SM DRSN BKN130 M09/M13 A2985 RMK AC6 SLP114

TAF TAF CYFB
Valid from the 25 at 12:00 until the 26 at 12:00 UTC


251138Z 2512/2612 14020KT P6SM BKN120
BECMG 2512/2514 14020G30KT
FM252000 14020G30KT P6SM FEW020 BKN040 OVC070
TEMPO 2520/2602 4SM -SN BKN020 OVC040
FM260200 14020G30KT 4SM -SN OVC020
FM261000 15015G25KT 2SM -SN OVC015 RMK NXT FCST BY 251800Z
CZUL FIR / North America



MET'MAP, your aeronautical weather chart ! - Copyright ORBIFLY December 2007 - Disclaimer

ORBIFLY MET'MAP TEAM :

Programming & Development : Alexandra Zaïnal
Concept & Development : Baudouin d'Aumeries
Co-Development & Prog : Marc-Olivier Méhu
Technical & hardware support : Manuel Goepfert

Contact : metmap@orbifly.com




SOURCES & CREDITS :

   NOAA